sensor_id;sensor_type;location;lat;lon;timestamp;P1;durP1;ratioP1;P2;durP2;ratioP2
75377;SDS011;63959;51.960;5.886;2022-11-11T00:00:59;11.05;;;5.00;;
75377;SDS011;63959;51.960;5.886;2022-11-11T00:03:47;14.88;;;5.38;;
75377;SDS011;63959;51.960;5.886;2022-11-11T00:06:35;12.95;;;5.05;;
75377;SDS011;63959;51.960;5.886;2022-11-11T00:09:25;12.13;;;4.90;;
75377;SDS011;63959;51.960;5.886;2022-11-11T00:12:12;12.32;;;5.05;;
75377;SDS011;63959;51.960;5.886;2022-11-11T00:15:00;11.15;;;4.57;;
75377;SDS011;63959;51.960;5.886;2022-11-11T00:17:47;12.05;;;4.97;;
75377;SDS011;63959;51.960;5.886;2022-11-11T00:20:47;11.52;;;5.18;;
75377;SDS011;63959;51.960;5.886;2022-11-11T00:23:46;13.65;;;6.20;;
75377;SDS011;63959;51.960;5.886;2022-11-11T00:26:54;14.63;;;6.80;;
75377;SDS011;63959;51.960;5.886;2022-11-11T00:32:45;10.02;;;5.38;;
75377;SDS011;63959;51.960;5.886;2022-11-11T00:35:35;15.75;;;6.75;;
75377;SDS011;63959;51.960;5.886;2022-11-11T00:38:34;14.48;;;6.07;;
75377;SDS011;63959;51.960;5.886;2022-11-11T00:41:36;13.00;;;5.75;;
75377;SDS011;63959;51.960;5.886;2022-11-11T00:44:25;13.60;;;5.75;;
75377;SDS011;63959;51.960;5.886;2022-11-11T00:47:13;15.38;;;6.07;;
75377;SDS011;63959;51.960;5.886;2022-11-11T00:50:22;17.02;;;8.15;;
75377;SDS011;63959;51.960;5.886;2022-11-11T00:53:23;12.05;;;6.10;;
75377;SDS011;63959;51.960;5.886;2022-11-11T00:56:10;15.65;;;8.15;;
75377;SDS011;63959;51.960;5.886;2022-11-11T00:58:57;13.40;;;6.68;;
75377;SDS011;63959;51.960;5.886;2022-11-11T01:01:47;12.82;;;6.60;;
75377;SDS011;63959;51.960;5.886;2022-11-11T01:04:35;13.75;;;6.05;;
75377;SDS011;63959;51.960;5.886;2022-11-11T01:07:22;13.43;;;7.30;;
75377;SDS011;63959;51.960;5.886;2022-11-11T01:10:10;17.45;;;8.93;;
75377;SDS011;63959;51.960;5.886;2022-11-11T01:13:18;18.13;;;8.20;;
75377;SDS011;63959;51.960;5.886;2022-11-11T01:16:09;13.93;;;7.25;;
75377;SDS011;63959;51.960;5.886;2022-11-11T01:18:59;14.60;;;7.63;;
75377;SDS011;63959;51.960;5.886;2022-11-11T01:21:47;18.48;;;10.10;;
75377;SDS011;63959;51.960;5.886;2022-11-11T01:24:35;16.13;;;8.40;;
75377;SDS011;63959;51.960;5.886;2022-11-11T01:27:22;18.90;;;9.38;;
75377;SDS011;63959;51.960;5.886;2022-11-11T01:30:10;16.15;;;8.35;;
75377;SDS011;63959;51.960;5.886;2022-11-11T01:32:58;17.73;;;9.45;;
75377;SDS011;63959;51.960;5.886;2022-11-11T01:35:47;17.65;;;8.95;;
75377;SDS011;63959;51.960;5.886;2022-11-11T01:38:35;15.70;;;8.70;;
75377;SDS011;63959;51.960;5.886;2022-11-11T01:41:23;13.30;;;7.03;;
75377;SDS011;63959;51.960;5.886;2022-11-11T01:47:22;21.08;;;9.30;;
75377;SDS011;63959;51.960;5.886;2022-11-11T01:50:29;17.42;;;8.85;;
75377;SDS011;63959;51.960;5.886;2022-11-11T01:53:18;16.35;;;8.57;;
75377;SDS011;63959;51.960;5.886;2022-11-11T01:56:05;20.58;;;10.18;;
75377;SDS011;63959;51.960;5.886;2022-11-11T01:58:55;17.98;;;9.18;;
75377;SDS011;63959;51.960;5.886;2022-11-11T02:01:44;19.55;;;9.95;;
75377;SDS011;63959;51.960;5.886;2022-11-11T02:04:32;20.40;;;9.63;;
75377;SDS011;63959;51.960;5.886;2022-11-11T02:07:32;20.92;;;10.52;;
75377;SDS011;63959;51.960;5.886;2022-11-11T02:10:23;16.35;;;9.25;;
75377;SDS011;63959;51.960;5.886;2022-11-11T02:13:12;18.13;;;9.27;;
75377;SDS011;63959;51.960;5.886;2022-11-11T02:16:18;22.00;;;11.55;;
75377;SDS011;63959;51.960;5.886;2022-11-11T02:19:06;16.83;;;10.40;;
75377;SDS011;63959;51.960;5.886;2022-11-11T02:21:56;22.67;;;10.10;;
75377;SDS011;63959;51.960;5.886;2022-11-11T02:24:47;19.08;;;9.68;;
75377;SDS011;63959;51.960;5.886;2022-11-11T02:27:35;20.08;;;11.30;;
75377;SDS011;63959;51.960;5.886;2022-11-11T02:30:24;17.00;;;9.13;;
75377;SDS011;63959;51.960;5.886;2022-11-11T02:33:14;17.23;;;9.73;;
75377;SDS011;63959;51.960;5.886;2022-11-11T02:36:01;24.92;;;11.60;;
75377;SDS011;63959;51.960;5.886;2022-11-11T02:38:49;20.77;;;10.43;;
75377;SDS011;63959;51.960;5.886;2022-11-11T02:41:42;22.85;;;12.20;;
75377;SDS011;63959;51.960;5.886;2022-11-11T02:44:53;16.85;;;9.20;;
75377;SDS011;63959;51.960;5.886;2022-11-11T02:47:41;18.65;;;9.55;;
75377;SDS011;63959;51.960;5.886;2022-11-11T02:50:29;18.42;;;9.77;;
75377;SDS011;63959;51.960;5.886;2022-11-11T02:53:16;22.15;;;10.95;;
75377;SDS011;63959;51.960;5.886;2022-11-11T02:56:04;23.00;;;12.32;;
75377;SDS011;63959;51.960;5.886;2022-11-11T02:58:54;18.23;;;9.38;;
75377;SDS011;63959;51.960;5.886;2022-11-11T03:01:41;19.10;;;9.20;;
75377;SDS011;63959;51.960;5.886;2022-11-11T03:04:29;21.30;;;11.50;;
75377;SDS011;63959;51.960;5.886;2022-11-11T03:07:16;19.25;;;8.93;;
75377;SDS011;63959;51.960;5.886;2022-11-11T03:10:03;14.43;;;7.70;;
75377;SDS011;63959;51.960;5.886;2022-11-11T03:12:50;22.33;;;9.82;;
75377;SDS011;63959;51.960;5.886;2022-11-11T03:15:40;17.92;;;9.90;;
75377;SDS011;63959;51.960;5.886;2022-11-11T03:18:28;17.33;;;8.73;;
75377;SDS011;63959;51.960;5.886;2022-11-11T03:21:12;16.70;;;9.30;;
75377;SDS011;63959;51.960;5.886;2022-11-11T03:23:59;19.92;;;9.50;;
75377;SDS011;63959;51.960;5.886;2022-11-11T03:26:47;17.30;;;8.43;;
75377;SDS011;63959;51.960;5.886;2022-11-11T03:29:31;23.70;;;11.35;;
75377;SDS011;63959;51.960;5.886;2022-11-11T03:32:21;21.83;;;11.57;;
75377;SDS011;63959;51.960;5.886;2022-11-11T03:35:08;18.38;;;9.43;;
75377;SDS011;63959;51.960;5.886;2022-11-11T03:37:56;17.83;;;9.75;;
75377;SDS011;63959;51.960;5.886;2022-11-11T03:43:42;18.35;;;8.15;;
75377;SDS011;63959;51.960;5.886;2022-11-11T03:46:29;19.63;;;9.82;;
75377;SDS011;63959;51.960;5.886;2022-11-11T03:49:21;18.00;;;9.85;;
75377;SDS011;63959;51.960;5.886;2022-11-11T03:52:09;18.02;;;8.05;;
75377;SDS011;63959;51.960;5.886;2022-11-11T03:54:56;19.60;;;9.77;;
75377;SDS011;63959;51.960;5.886;2022-11-11T03:57:47;15.07;;;8.88;;
75377;SDS011;63959;51.960;5.886;2022-11-11T04:00:34;19.35;;;8.88;;
75377;SDS011;63959;51.960;5.886;2022-11-11T04:03:22;15.32;;;7.75;;
75377;SDS011;63959;51.960;5.886;2022-11-11T04:06:25;15.75;;;8.88;;
75377;SDS011;63959;51.960;5.886;2022-11-11T04:09:25;14.93;;;6.95;;
75377;SDS011;63959;51.960;5.886;2022-11-11T04:12:25;14.60;;;6.70;;
75377;SDS011;63959;51.960;5.886;2022-11-11T04:15:16;17.00;;;9.10;;
75377;SDS011;63959;51.960;5.886;2022-11-11T04:18:16;19.20;;;10.02;;
75377;SDS011;63959;51.960;5.886;2022-11-11T04:21:26;15.60;;;7.22;;
75377;SDS011;63959;51.960;5.886;2022-11-11T04:24:26;21.60;;;10.85;;
75377;SDS011;63959;51.960;5.886;2022-11-11T04:30:13;16.88;;;8.40;;
75377;SDS011;63959;51.960;5.886;2022-11-11T04:33:01;11.77;;;7.22;;
75377;SDS011;63959;51.960;5.886;2022-11-11T04:35:50;22.70;;;11.20;;
75377;SDS011;63959;51.960;5.886;2022-11-11T04:38:40;19.65;;;10.60;;
75377;SDS011;63959;51.960;5.886;2022-11-11T04:41:40;13.93;;;7.03;;
75377;SDS011;63959;51.960;5.886;2022-11-11T04:44:28;16.65;;;9.40;;
75377;SDS011;63959;51.960;5.886;2022-11-11T04:47:27;15.13;;;7.18;;
75377;SDS011;63959;51.960;5.886;2022-11-11T04:50:17;19.45;;;9.48;;
75377;SDS011;63959;51.960;5.886;2022-11-11T04:53:06;16.40;;;8.10;;
75377;SDS011;63959;51.960;5.886;2022-11-11T04:55:57;13.50;;;7.43;;
75377;SDS011;63959;51.960;5.886;2022-11-11T04:58:57;17.52;;;7.72;;
75377;SDS011;63959;51.960;5.886;2022-11-11T05:01:56;14.32;;;7.32;;
75377;SDS011;63959;51.960;5.886;2022-11-11T05:07:43;16.25;;;7.60;;
75377;SDS011;63959;51.960;5.886;2022-11-11T05:10:43;15.75;;;7.43;;
75377;SDS011;63959;51.960;5.886;2022-11-11T05:13:32;17.38;;;7.65;;
75377;SDS011;63959;51.960;5.886;2022-11-11T05:16:33;15.40;;;7.95;;
75377;SDS011;63959;51.960;5.886;2022-11-11T05:19:33;13.30;;;6.88;;
75377;SDS011;63959;51.960;5.886;2022-11-11T05:22:34;17.83;;;8.45;;
75377;SDS011;63959;51.960;5.886;2022-11-11T05:25:22;15.80;;;8.80;;
75377;SDS011;63959;51.960;5.886;2022-11-11T05:28:10;19.33;;;9.48;;
75377;SDS011;63959;51.960;5.886;2022-11-11T05:31:00;17.60;;;7.90;;
75377;SDS011;63959;51.960;5.886;2022-11-11T05:33:47;18.98;;;9.27;;
75377;SDS011;63959;51.960;5.886;2022-11-11T05:36:35;16.48;;;8.48;;
75377;SDS011;63959;51.960;5.886;2022-11-11T05:39:23;14.20;;;7.22;;
75377;SDS011;63959;51.960;5.886;2022-11-11T05:42:11;14.85;;;7.53;;
75377;SDS011;63959;51.960;5.886;2022-11-11T05:44:58;18.10;;;6.95;;
75377;SDS011;63959;51.960;5.886;2022-11-11T05:47:49;15.75;;;8.65;;
75377;SDS011;63959;51.960;5.886;2022-11-11T05:50:36;16.77;;;8.45;;
75377;SDS011;63959;51.960;5.886;2022-11-11T05:53:25;14.32;;;7.22;;
75377;SDS011;63959;51.960;5.886;2022-11-11T05:56:12;14.95;;;6.38;;
75377;SDS011;63959;51.960;5.886;2022-11-11T06:01:47;15.52;;;7.10;;
75377;SDS011;63959;51.960;5.886;2022-11-11T06:04:37;14.82;;;6.68;;
75377;SDS011;63959;51.960;5.886;2022-11-11T06:07:24;14.15;;;7.80;;
75377;SDS011;63959;51.960;5.886;2022-11-11T06:10:11;19.33;;;8.57;;
75377;SDS011;63959;51.960;5.886;2022-11-11T06:13:11;14.60;;;6.30;;
75377;SDS011;63959;51.960;5.886;2022-11-11T06:15:59;14.63;;;7.05;;
75377;SDS011;63959;51.960;5.886;2022-11-11T06:18:46;16.80;;;7.50;;
75377;SDS011;63959;51.960;5.886;2022-11-11T06:21:36;18.55;;;8.75;;
75377;SDS011;63959;51.960;5.886;2022-11-11T06:24:36;16.15;;;7.03;;
75377;SDS011;63959;51.960;5.886;2022-11-11T06:27:22;15.65;;;7.80;;
75377;SDS011;63959;51.960;5.886;2022-11-11T06:30:12;16.65;;;7.55;;
75377;SDS011;63959;51.960;5.886;2022-11-11T06:32:59;17.33;;;8.68;;
75377;SDS011;63959;51.960;5.886;2022-11-11T06:35:46;14.60;;;6.95;;
75377;SDS011;63959;51.960;5.886;2022-11-11T06:38:36;18.38;;;8.68;;
75377;SDS011;63959;51.960;5.886;2022-11-11T06:41:23;15.70;;;8.25;;
75377;SDS011;63959;51.960;5.886;2022-11-11T06:44:10;15.93;;;8.15;;
75377;SDS011;63959;51.960;5.886;2022-11-11T06:46:58;20.83;;;10.38;;
75377;SDS011;63959;51.960;5.886;2022-11-11T06:49:45;14.65;;;7.80;;
75377;SDS011;63959;51.960;5.886;2022-11-11T06:52:32;19.42;;;9.77;;
75377;SDS011;63959;51.960;5.886;2022-11-11T06:55:22;18.33;;;9.32;;
75377;SDS011;63959;51.960;5.886;2022-11-11T06:58:09;16.08;;;8.38;;
75377;SDS011;63959;51.960;5.886;2022-11-11T07:00:57;17.65;;;8.82;;
75377;SDS011;63959;51.960;5.886;2022-11-11T07:03:46;18.00;;;9.23;;
75377;SDS011;63959;51.960;5.886;2022-11-11T07:06:33;18.08;;;10.15;;
75377;SDS011;63959;51.960;5.886;2022-11-11T07:12:11;20.60;;;9.43;;
75377;SDS011;63959;51.960;5.886;2022-11-11T07:14:58;21.23;;;11.07;;
75377;SDS011;63959;51.960;5.886;2022-11-11T07:17:45;19.98;;;11.30;;
75377;SDS011;63959;51.960;5.886;2022-11-11T07:20:33;19.98;;;10.02;;
75377;SDS011;63959;51.960;5.886;2022-11-11T07:23:20;15.82;;;8.50;;
75377;SDS011;63959;51.960;5.886;2022-11-11T07:26:07;18.73;;;9.05;;
75377;SDS011;63959;51.960;5.886;2022-11-11T07:28:57;18.65;;;9.50;;
75377;SDS011;63959;51.960;5.886;2022-11-11T07:31:45;20.75;;;10.43;;
75377;SDS011;63959;51.960;5.886;2022-11-11T07:34:34;18.25;;;9.60;;
75377;SDS011;63959;51.960;5.886;2022-11-11T07:37:21;17.80;;;9.50;;
75377;SDS011;63959;51.960;5.886;2022-11-11T07:40:10;23.52;;;12.25;;
75377;SDS011;63959;51.960;5.886;2022-11-11T07:42:57;18.52;;;10.45;;
75377;SDS011;63959;51.960;5.886;2022-11-11T07:45:47;20.60;;;10.07;;
75377;SDS011;63959;51.960;5.886;2022-11-11T07:48:34;22.90;;;10.43;;
75377;SDS011;63959;51.960;5.886;2022-11-11T07:54:08;22.90;;;11.88;;
75377;SDS011;63959;51.960;5.886;2022-11-11T07:56:56;22.10;;;10.13;;
75377;SDS011;63959;51.960;5.886;2022-11-11T07:59:43;17.83;;;9.55;;
75377;SDS011;63959;51.960;5.886;2022-11-11T08:02:36;18.38;;;9.30;;
75377;SDS011;63959;51.960;5.886;2022-11-11T08:05:23;17.05;;;8.98;;
75377;SDS011;63959;51.960;5.886;2022-11-11T08:08:10;23.55;;;11.98;;
75377;SDS011;63959;51.960;5.886;2022-11-11T08:10:57;18.52;;;8.85;;
75377;SDS011;63959;51.960;5.886;2022-11-11T08:13:45;17.88;;;9.20;;
75377;SDS011;63959;51.960;5.886;2022-11-11T08:16:29;15.27;;;8.63;;
75377;SDS011;63959;51.960;5.886;2022-11-11T08:19:19;21.75;;;11.27;;
75377;SDS011;63959;51.960;5.886;2022-11-11T08:22:06;18.55;;;9.80;;
75377;SDS011;63959;51.960;5.886;2022-11-11T08:24:54;21.55;;;11.50;;
75377;SDS011;63959;51.960;5.886;2022-11-11T08:27:41;18.33;;;9.00;;
75377;SDS011;63959;51.960;5.886;2022-11-11T08:30:28;17.30;;;8.55;;
75377;SDS011;63959;51.960;5.886;2022-11-11T08:33:16;18.48;;;9.30;;
75377;SDS011;63959;51.960;5.886;2022-11-11T08:36:09;19.85;;;9.05;;
75377;SDS011;63959;51.960;5.886;2022-11-11T08:41:43;16.15;;;8.27;;
75377;SDS011;63959;51.960;5.886;2022-11-11T08:47:19;14.68;;;7.07;;
75377;SDS011;63959;51.960;5.886;2022-11-11T08:50:08;14.85;;;7.80;;
75377;SDS011;63959;51.960;5.886;2022-11-11T08:52:58;17.83;;;8.98;;
75377;SDS011;63959;51.960;5.886;2022-11-11T08:55:45;16.00;;;6.53;;
75377;SDS011;63959;51.960;5.886;2022-11-11T08:58:33;16.20;;;7.65;;
75377;SDS011;63959;51.960;5.886;2022-11-11T09:01:20;15.85;;;7.45;;
75377;SDS011;63959;51.960;5.886;2022-11-11T09:06:54;15.32;;;6.90;;
75377;SDS011;63959;51.960;5.886;2022-11-11T09:09:44;15.38;;;7.65;;
75377;SDS011;63959;51.960;5.886;2022-11-11T09:12:32;13.35;;;6.75;;
75377;SDS011;63959;51.960;5.886;2022-11-11T09:15:19;16.33;;;7.88;;
75377;SDS011;63959;51.960;5.886;2022-11-11T09:18:06;15.23;;;7.43;;
75377;SDS011;63959;51.960;5.886;2022-11-11T09:20:53;13.98;;;7.13;;
75377;SDS011;63959;51.960;5.886;2022-11-11T09:23:43;14.38;;;6.80;;
75377;SDS011;63959;51.960;5.886;2022-11-11T09:26:34;14.00;;;6.45;;
75377;SDS011;63959;51.960;5.886;2022-11-11T09:29:22;12.70;;;6.03;;
75377;SDS011;63959;51.960;5.886;2022-11-11T09:32:10;14.43;;;6.95;;
75377;SDS011;63959;51.960;5.886;2022-11-11T09:34:57;13.98;;;6.82;;
75377;SDS011;63959;51.960;5.886;2022-11-11T09:37:54;12.02;;;5.93;;
75377;SDS011;63959;51.960;5.886;2022-11-11T09:40:47;14.55;;;6.82;;
75377;SDS011;63959;51.960;5.886;2022-11-11T09:43:39;11.93;;;5.25;;
75377;SDS011;63959;51.960;5.886;2022-11-11T09:46:30;14.20;;;7.30;;
75377;SDS011;63959;51.960;5.886;2022-11-11T09:49:26;12.77;;;6.50;;
75377;SDS011;63959;51.960;5.886;2022-11-11T09:52:17;11.65;;;5.65;;
75377;SDS011;63959;51.960;5.886;2022-11-11T09:55:05;13.07;;;6.07;;
75377;SDS011;63959;51.960;5.886;2022-11-11T09:58:00;12.65;;;6.90;;
75377;SDS011;63959;51.960;5.886;2022-11-11T10:00:54;10.38;;;5.00;;
75377;SDS011;63959;51.960;5.886;2022-11-11T10:03:43;12.25;;;5.93;;
75377;SDS011;63959;51.960;5.886;2022-11-11T10:06:34;9.68;;;5.10;;
75377;SDS011;63959;51.960;5.886;2022-11-11T10:09:24;13.63;;;6.00;;
75377;SDS011;63959;51.960;5.886;2022-11-11T10:12:14;11.65;;;5.60;;
75377;SDS011;63959;51.960;5.886;2022-11-11T10:15:08;12.65;;;5.85;;
75377;SDS011;63959;51.960;5.886;2022-11-11T10:18:07;9.27;;;4.45;;
75377;SDS011;63959;51.960;5.886;2022-11-11T10:20:56;11.10;;;5.80;;
75377;SDS011;63959;51.960;5.886;2022-11-11T10:23:45;9.77;;;4.97;;
75377;SDS011;63959;51.960;5.886;2022-11-11T10:26:36;11.63;;;5.63;;
75377;SDS011;63959;51.960;5.886;2022-11-11T10:29:24;12.85;;;6.50;;
75377;SDS011;63959;51.960;5.886;2022-11-11T10:32:15;9.48;;;4.82;;
75377;SDS011;63959;51.960;5.886;2022-11-11T10:35:15;10.68;;;4.45;;
75377;SDS011;63959;51.960;5.886;2022-11-11T10:38:10;17.23;;;6.13;;
75377;SDS011;63959;51.960;5.886;2022-11-11T10:41:07;12.48;;;5.00;;
75377;SDS011;63959;51.960;5.886;2022-11-11T10:43:56;9.82;;;4.25;;
75377;SDS011;63959;51.960;5.886;2022-11-11T10:46:46;10.88;;;5.05;;
75377;SDS011;63959;51.960;5.886;2022-11-11T10:49:39;10.35;;;5.03;;
75377;SDS011;63959;51.960;5.886;2022-11-11T10:52:32;9.43;;;4.80;;
75377;SDS011;63959;51.960;5.886;2022-11-11T10:55:21;9.82;;;4.78;;
75377;SDS011;63959;51.960;5.886;2022-11-11T10:58:10;9.57;;;4.75;;
75377;SDS011;63959;51.960;5.886;2022-11-11T11:01:01;9.60;;;4.97;;
75377;SDS011;63959;51.960;5.886;2022-11-11T11:03:51;8.88;;;4.22;;
75377;SDS011;63959;51.960;5.886;2022-11-11T11:06:41;9.43;;;4.60;;
75377;SDS011;63959;51.960;5.886;2022-11-11T11:09:34;10.63;;;4.28;;
75377;SDS011;63959;51.960;5.886;2022-11-11T11:12:25;9.30;;;4.43;;
75377;SDS011;63959;51.960;5.886;2022-11-11T11:15:16;9.88;;;4.03;;
75377;SDS011;63959;51.960;5.886;2022-11-11T11:18:04;10.25;;;5.40;;
75377;SDS011;63959;51.960;5.886;2022-11-11T11:20:55;7.20;;;3.65;;
75377;SDS011;63959;51.960;5.886;2022-11-11T11:23:43;8.65;;;4.32;;
75377;SDS011;63959;51.960;5.886;2022-11-11T11:26:43;9.60;;;5.00;;
75377;SDS011;63959;51.960;5.886;2022-11-11T11:29:31;8.18;;;4.00;;
75377;SDS011;63959;51.960;5.886;2022-11-11T11:32:19;8.93;;;3.80;;
75377;SDS011;63959;51.960;5.886;2022-11-11T11:35:07;9.23;;;4.13;;
75377;SDS011;63959;51.960;5.886;2022-11-11T11:37:55;9.60;;;4.85;;
75377;SDS011;63959;51.960;5.886;2022-11-11T11:40:46;9.85;;;4.35;;
75377;SDS011;63959;51.960;5.886;2022-11-11T11:43:36;9.68;;;4.10;;
75377;SDS011;63959;51.960;5.886;2022-11-11T11:46:26;8.75;;;4.28;;
75377;SDS011;63959;51.960;5.886;2022-11-11T11:49:18;9.70;;;4.97;;
75377;SDS011;63959;51.960;5.886;2022-11-11T11:52:08;9.18;;;4.20;;
75377;SDS011;63959;51.960;5.886;2022-11-11T11:54:58;7.57;;;3.60;;
75377;SDS011;63959;51.960;5.886;2022-11-11T11:57:53;7.68;;;3.10;;
75377;SDS011;63959;51.960;5.886;2022-11-11T12:00:45;8.73;;;3.58;;
75377;SDS011;63959;51.960;5.886;2022-11-11T12:03:51;10.27;;;5.13;;
75377;SDS011;63959;51.960;5.886;2022-11-11T12:06:45;8.93;;;4.55;;
75377;SDS011;63959;51.960;5.886;2022-11-11T12:09:38;8.02;;;3.97;;
75377;SDS011;63959;51.960;5.886;2022-11-11T12:12:32;9.50;;;4.18;;
75377;SDS011;63959;51.960;5.886;2022-11-11T12:15:24;8.98;;;4.50;;
75377;SDS011;63959;51.960;5.886;2022-11-11T12:21:19;8.60;;;4.03;;
75377;SDS011;63959;51.960;5.886;2022-11-11T12:24:10;9.32;;;3.95;;
75377;SDS011;63959;51.960;5.886;2022-11-11T12:27:00;7.53;;;3.22;;
75377;SDS011;63959;51.960;5.886;2022-11-11T12:29:56;6.35;;;3.08;;
75377;SDS011;63959;51.960;5.886;2022-11-11T12:32:50;7.47;;;3.53;;
75377;SDS011;63959;51.960;5.886;2022-11-11T12:35:44;6.35;;;3.28;;
75377;SDS011;63959;51.960;5.886;2022-11-11T12:38:41;6.05;;;2.88;;
75377;SDS011;63959;51.960;5.886;2022-11-11T12:41:39;11.27;;;3.88;;
75377;SDS011;63959;51.960;5.886;2022-11-11T12:44:32;7.60;;;3.17;;
75377;SDS011;63959;51.960;5.886;2022-11-11T12:50:12;6.43;;;3.00;;
75377;SDS011;63959;51.960;5.886;2022-11-11T12:53:14;7.80;;;2.75;;
75377;SDS011;63959;51.960;5.886;2022-11-11T12:56:09;8.52;;;4.00;;
75377;SDS011;63959;51.960;5.886;2022-11-11T12:59:02;6.45;;;2.95;;
75377;SDS011;63959;51.960;5.886;2022-11-11T13:01:54;6.05;;;2.60;;
75377;SDS011;63959;51.960;5.886;2022-11-11T13:04:46;5.88;;;2.63;;
75377;SDS011;63959;51.960;5.886;2022-11-11T13:07:38;6.13;;;2.53;;
75377;SDS011;63959;51.960;5.886;2022-11-11T13:10:29;5.90;;;2.40;;
75377;SDS011;63959;51.960;5.886;2022-11-11T13:13:26;6.72;;;2.90;;
75377;SDS011;63959;51.960;5.886;2022-11-11T13:16:17;8.70;;;2.65;;
75377;SDS011;63959;51.960;5.886;2022-11-11T13:19:10;6.47;;;2.88;;
75377;SDS011;63959;51.960;5.886;2022-11-11T13:22:02;5.72;;;2.53;;
75377;SDS011;63959;51.960;5.886;2022-11-11T13:24:53;6.15;;;2.58;;
75377;SDS011;63959;51.960;5.886;2022-11-11T13:27:43;6.82;;;2.75;;
75377;SDS011;63959;51.960;5.886;2022-11-11T13:30:37;6.85;;;2.72;;
75377;SDS011;63959;51.960;5.886;2022-11-11T13:33:25;7.80;;;2.92;;
75377;SDS011;63959;51.960;5.886;2022-11-11T13:36:14;6.45;;;2.50;;
75377;SDS011;63959;51.960;5.886;2022-11-11T13:39:02;6.05;;;3.00;;
75377;SDS011;63959;51.960;5.886;2022-11-11T13:41:50;7.10;;;2.63;;
75377;SDS011;63959;51.960;5.886;2022-11-11T13:44:47;6.88;;;2.55;;
75377;SDS011;63959;51.960;5.886;2022-11-11T13:47:39;6.72;;;2.00;;
75377;SDS011;63959;51.960;5.886;2022-11-11T13:50:34;6.35;;;3.25;;
75377;SDS011;63959;51.960;5.886;2022-11-11T13:53:26;6.47;;;2.63;;
75377;SDS011;63959;51.960;5.886;2022-11-11T13:56:21;7.00;;;2.35;;
75377;SDS011;63959;51.960;5.886;2022-11-11T13:59:14;4.40;;;1.65;;
75377;SDS011;63959;51.960;5.886;2022-11-11T14:02:13;5.80;;;2.15;;
75377;SDS011;63959;51.960;5.886;2022-11-11T14:08:05;6.82;;;2.03;;
75377;SDS011;63959;51.960;5.886;2022-11-11T14:10:53;6.20;;;2.28;;
75377;SDS011;63959;51.960;5.886;2022-11-11T14:13:41;4.95;;;2.15;;
75377;SDS011;63959;51.960;5.886;2022-11-11T14:19:31;6.75;;;2.13;;
75377;SDS011;63959;51.960;5.886;2022-11-11T14:22:27;5.82;;;1.73;;
75377;SDS011;63959;51.960;5.886;2022-11-11T14:25:22;4.70;;;1.90;;
75377;SDS011;63959;51.960;5.886;2022-11-11T14:28:18;6.03;;;2.15;;
75377;SDS011;63959;51.960;5.886;2022-11-11T14:34:12;5.22;;;2.30;;
75377;SDS011;63959;51.960;5.886;2022-11-11T14:37:08;5.47;;;2.00;;
75377;SDS011;63959;51.960;5.886;2022-11-11T14:39:56;4.95;;;1.90;;
75377;SDS011;63959;51.960;5.886;2022-11-11T14:42:46;5.30;;;2.33;;
75377;SDS011;63959;51.960;5.886;2022-11-11T14:48:49;6.30;;;2.33;;
75377;SDS011;63959;51.960;5.886;2022-11-11T14:51:47;5.85;;;2.00;;
75377;SDS011;63959;51.960;5.886;2022-11-11T14:54:36;5.45;;;2.10;;
75377;SDS011;63959;51.960;5.886;2022-11-11T14:57:29;5.45;;;2.05;;
75377;SDS011;63959;51.960;5.886;2022-11-11T15:00:21;5.60;;;2.50;;
75377;SDS011;63959;51.960;5.886;2022-11-11T15:03:08;6.97;;;2.58;;
75377;SDS011;63959;51.960;5.886;2022-11-11T15:05:57;4.93;;;2.00;;
75377;SDS011;63959;51.960;5.886;2022-11-11T15:08:48;4.50;;;1.90;;
75377;SDS011;63959;51.960;5.886;2022-11-11T15:11:38;4.47;;;2.10;;
75377;SDS011;63959;51.960;5.886;2022-11-11T15:14:27;4.55;;;2.15;;
75377;SDS011;63959;51.960;5.886;2022-11-11T15:17:21;7.55;;;2.72;;
75377;SDS011;63959;51.960;5.886;2022-11-11T15:20:24;5.05;;;2.22;;
75377;SDS011;63959;51.960;5.886;2022-11-11T15:23:14;6.47;;;2.50;;
75377;SDS011;63959;51.960;5.886;2022-11-11T15:26:06;7.07;;;2.78;;
75377;SDS011;63959;51.960;5.886;2022-11-11T15:29:00;6.55;;;2.58;;
75377;SDS011;63959;51.960;5.886;2022-11-11T15:31:49;6.90;;;2.88;;
75377;SDS011;63959;51.960;5.886;2022-11-11T15:34:44;6.88;;;2.70;;
75377;SDS011;63959;51.960;5.886;2022-11-11T15:37:33;7.60;;;3.10;;
75377;SDS011;63959;51.960;5.886;2022-11-11T15:40:21;6.40;;;2.70;;
75377;SDS011;63959;51.960;5.886;2022-11-11T15:43:16;5.05;;;1.83;;
75377;SDS011;63959;51.960;5.886;2022-11-11T15:46:12;7.22;;;2.30;;
75377;SDS011;63959;51.960;5.886;2022-11-11T15:49:10;5.07;;;2.38;;
75377;SDS011;63959;51.960;5.886;2022-11-11T15:52:00;7.03;;;2.90;;
75377;SDS011;63959;51.960;5.886;2022-11-11T15:54:48;7.32;;;2.97;;
75377;SDS011;63959;51.960;5.886;2022-11-11T15:57:35;7.80;;;2.72;;
75377;SDS011;63959;51.960;5.886;2022-11-11T16:00:27;6.65;;;2.70;;
75377;SDS011;63959;51.960;5.886;2022-11-11T16:03:15;6.20;;;2.88;;
75377;SDS011;63959;51.960;5.886;2022-11-11T16:06:03;7.35;;;2.80;;
75377;SDS011;63959;51.960;5.886;2022-11-11T16:08:54;5.80;;;2.40;;
75377;SDS011;63959;51.960;5.886;2022-11-11T16:11:42;18.02;;;9.07;;
75377;SDS011;63959;51.960;5.886;2022-11-11T16:14:30;29.92;;;15.82;;
75377;SDS011;63959;51.960;5.886;2022-11-11T16:17:19;19.70;;;9.80;;
75377;SDS011;63959;51.960;5.886;2022-11-11T16:20:11;9.40;;;4.88;;
75377;SDS011;63959;51.960;5.886;2022-11-11T16:22:58;15.73;;;7.90;;
75377;SDS011;63959;51.960;5.886;2022-11-11T16:25:49;22.23;;;10.85;;
75377;SDS011;63959;51.960;5.886;2022-11-11T16:28:38;15.68;;;8.02;;
75377;SDS011;63959;51.960;5.886;2022-11-11T16:31:29;10.75;;;4.45;;
75377;SDS011;63959;51.960;5.886;2022-11-11T16:34:22;10.80;;;4.78;;
75377;SDS011;63959;51.960;5.886;2022-11-11T16:37:10;10.77;;;4.60;;
75377;SDS011;63959;51.960;5.886;2022-11-11T16:43:13;13.75;;;6.28;;
75377;SDS011;63959;51.960;5.886;2022-11-11T16:46:03;9.93;;;4.25;;
75377;SDS011;63959;51.960;5.886;2022-11-11T16:48:51;8.93;;;4.05;;
75377;SDS011;63959;51.960;5.886;2022-11-11T16:51:39;9.05;;;4.22;;
75377;SDS011;63959;51.960;5.886;2022-11-11T16:54:28;7.28;;;3.80;;
75377;SDS011;63959;51.960;5.886;2022-11-11T16:57:17;8.50;;;3.15;;
75377;SDS011;63959;51.960;5.886;2022-11-11T17:00:10;6.80;;;2.90;;
75377;SDS011;63959;51.960;5.886;2022-11-11T17:03:10;6.22;;;2.83;;
75377;SDS011;63959;51.960;5.886;2022-11-11T17:06:00;6.85;;;2.95;;
75377;SDS011;63959;51.960;5.886;2022-11-11T17:08:50;7.15;;;3.00;;
75377;SDS011;63959;51.960;5.886;2022-11-11T17:11:43;5.50;;;2.70;;
75377;SDS011;63959;51.960;5.886;2022-11-11T17:14:30;8.40;;;3.25;;
75377;SDS011;63959;51.960;5.886;2022-11-11T17:17:21;6.68;;;3.20;;
75377;SDS011;63959;51.960;5.886;2022-11-11T17:20:09;8.27;;;4.00;;
75377;SDS011;63959;51.960;5.886;2022-11-11T17:22:57;6.03;;;3.05;;
75377;SDS011;63959;51.960;5.886;2022-11-11T17:25:52;7.88;;;3.63;;
75377;SDS011;63959;51.960;5.886;2022-11-11T17:28:45;6.32;;;3.05;;
75377;SDS011;63959;51.960;5.886;2022-11-11T17:31:32;7.40;;;3.30;;
75377;SDS011;63959;51.960;5.886;2022-11-11T17:34:22;8.57;;;4.20;;
75377;SDS011;63959;51.960;5.886;2022-11-11T17:37:09;8.52;;;4.28;;
75377;SDS011;63959;51.960;5.886;2022-11-11T17:39:56;8.45;;;3.80;;
75377;SDS011;63959;51.960;5.886;2022-11-11T17:42:44;7.40;;;3.30;;
75377;SDS011;63959;51.960;5.886;2022-11-11T17:45:31;7.38;;;3.40;;
75377;SDS011;63959;51.960;5.886;2022-11-11T17:48:18;7.40;;;3.72;;
75377;SDS011;63959;51.960;5.886;2022-11-11T17:51:09;9.05;;;3.70;;